createdAt,value
2018-02-09T00:00:29.151Z,103.07
2018-02-09T00:02:56.786Z,107.93
2018-02-09T00:05:24.299Z,111.77
2018-02-09T00:07:52.011Z,96.70
2018-02-09T00:10:19.526Z,102.97
2018-02-09T00:12:47.227Z,100.87
2018-02-09T00:15:15.019Z,108.07
2018-02-09T00:17:42.775Z,98.30
2018-02-09T00:20:10.558Z,100.80
2018-02-09T00:22:51.754Z,107.43
2018-02-09T00:25:19.263Z,99.27
2018-02-09T00:27:47.045Z,105.33
2018-02-09T00:30:14.564Z,98.63
2018-02-09T00:32:42.087Z,100.07
2018-02-09T00:35:09.602Z,108.47
2018-02-09T00:37:37.139Z,93.60
2018-02-09T00:40:04.945Z,109.90
2018-02-09T00:42:32.454Z,101.60
2018-02-09T00:45:00.336Z,100.33
2018-02-09T00:47:27.919Z,96.53
2018-02-09T00:49:55.443Z,93.00
2018-02-09T00:52:23.138Z,96.27
2018-02-09T00:54:50.911Z,104.40
2018-02-09T00:57:18.671Z,105.13
2018-02-09T00:59:46.196Z,103.73
2018-02-09T01:02:13.708Z,100.43
2018-02-09T01:04:41.347Z,103.77
2018-02-09T01:07:09.111Z,103.77
2018-02-09T01:09:36.867Z,110.97
2018-02-09T01:12:04.608Z,103.40
2018-02-09T01:14:32.403Z,95.90
2018-02-09T01:17:00.163Z,106.10
2018-02-09T01:19:27.690Z,109.23
2018-02-09T01:21:55.387Z,108.30
2018-02-09T01:24:23.149Z,105.17
2018-02-09T01:26:50.783Z,99.43
2018-02-09T01:29:18.364Z,102.97
2018-02-09T01:31:45.881Z,97.73
2018-02-09T01:34:13.411Z,104.00
2018-02-09T01:36:40.927Z,101.70
2018-02-09T01:39:08.472Z,105.17
2018-02-09T01:41:36.262Z,113.23
2018-02-09T01:44:04.025Z,100.80
2018-02-09T01:46:31.535Z,102.53
2018-02-09T01:48:59.203Z,96.33
2018-02-09T01:51:27.007Z,94.70
2018-02-09T01:53:54.527Z,103.77
2018-02-09T01:56:22.203Z,101.07
2018-02-09T01:58:49.996Z,113.00
2018-02-09T02:01:17.509Z,97.50
2018-02-09T02:03:45.181Z,114.33
2018-02-09T02:06:12.970Z,114.73
2018-02-09T02:08:40.751Z,108.87
2018-02-09T02:11:08.682Z,106.20
2018-02-09T02:13:36.205Z,107.17
2018-02-09T02:16:04.026Z,109.27
2018-02-09T02:18:31.538Z,97.87
2018-02-09T02:20:59.054Z,107.03
2018-02-09T02:23:26.625Z,111.83
2018-02-09T02:25:54.166Z,110.37
2018-02-09T02:28:21.684Z,116.37
2018-02-09T02:30:49.405Z,102.77
2018-02-09T02:33:17.155Z,108.67
2018-02-09T02:35:44.912Z,101.60
2018-02-09T02:38:12.422Z,101.03
2018-02-09T02:40:40.139Z,104.07
2018-02-09T02:43:08.382Z,103.60
2018-02-09T02:45:35.895Z,101.63
2018-02-09T02:48:04.011Z,117.97
2018-02-09T02:50:31.521Z,120.73
2018-02-09T02:52:59.877Z,101.70
2018-02-09T02:55:27.639Z,104.83
2018-02-09T02:57:55.167Z,113.03
2018-02-09T03:00:23.334Z,101.87
2018-02-09T03:02:50.844Z,108.63
2018-02-09T03:05:18.395Z,100.30
2018-02-09T03:07:45.932Z,110.07
2018-02-09T03:10:13.598Z,101.60
2018-02-09T03:12:41.362Z,110.73
2018-02-09T03:15:08.879Z,104.70
2018-02-09T03:17:36.396Z,119.57
2018-02-09T03:20:04.042Z,121.57
2018-02-09T03:22:31.562Z,99.13
2018-02-09T03:24:59.259Z,104.70
2018-02-09T03:27:26.782Z,110.60
2018-02-09T03:29:54.502Z,108.50
2018-02-09T03:32:22.212Z,108.37
2018-02-09T03:34:49.723Z,96.57
2018-02-09T03:37:17.247Z,114.97
2018-02-09T03:39:44.760Z,100.47
2018-02-09T03:42:13.042Z,107.80
2018-02-09T03:44:40.755Z,105.40
2018-02-09T03:47:08.271Z,110.40
2018-02-09T03:49:35.968Z,113.00
2018-02-09T03:52:03.739Z,106.37
2018-02-09T03:54:31.275Z,102.53
2018-02-09T03:56:59.503Z,98.37
2018-02-09T03:59:27.028Z,102.97
2018-02-09T04:01:54.977Z,106.37
2018-02-09T04:04:22.535Z,108.90
2018-02-09T04:06:50.059Z,102.40
2018-02-09T04:09:17.619Z,110.20
2018-02-09T04:11:45.227Z,102.73
2018-02-09T04:14:12.755Z,109.33
2018-02-09T04:16:40.432Z,112.87
2018-02-09T04:19:08.219Z,104.77
2018-02-09T04:21:35.736Z,104.20
2018-02-09T04:24:03.255Z,108.13
2018-02-09T04:26:30.904Z,110.87
2018-02-09T04:28:58.424Z,93.10
2018-02-09T04:31:26.119Z,100.27
2018-02-09T04:33:53.647Z,105.57
2018-02-09T04:36:21.291Z,99.00
2018-02-09T04:38:48.827Z,104.20
2018-02-09T04:41:16.550Z,115.50
2018-02-09T04:43:44.067Z,99.37
2018-02-09T04:46:11.601Z,109.90
2018-02-09T04:48:39.879Z,108.50
2018-02-09T04:51:07.613Z,111.73
2018-02-09T04:53:35.371Z,103.13
2018-02-09T04:56:02.909Z,107.40
2018-02-09T04:58:30.587Z,110.00
2018-02-09T05:00:58.098Z,109.53
2018-02-09T05:03:25.602Z,101.90
2018-02-09T05:05:53.239Z,121.00
2018-02-09T05:08:20.798Z,108.13
2018-02-09T05:10:48.458Z,90.80
2018-02-09T05:13:15.967Z,117.00
2018-02-09T05:15:43.546Z,106.67
2018-02-09T05:18:11.823Z,110.40
2018-02-09T05:20:39.348Z,119.00
2018-02-09T05:23:06.970Z,105.77
2018-02-09T05:25:34.761Z,101.63
2018-02-09T05:28:02.535Z,98.20
2018-02-09T05:30:30.048Z,97.50
2018-02-09T05:32:57.742Z,108.10
2018-02-09T05:35:25.258Z,101.83
2018-02-09T05:37:52.936Z,100.67
2018-02-09T05:40:20.455Z,104.60
2018-02-09T05:42:48.183Z,101.30
2018-02-09T05:45:15.711Z,107.00
2018-02-09T05:47:43.235Z,108.20
2018-02-09T05:50:11.538Z,102.93
2018-02-09T05:52:39.595Z,106.90
2018-02-09T05:55:07.131Z,104.47
2018-02-09T05:57:34.746Z,126.50
2018-02-09T06:00:02.527Z,119.30
2018-02-09T06:02:30.310Z,116.87
2018-02-09T06:04:58.071Z,109.43
2018-02-09T06:07:25.591Z,117.10
2018-02-09T06:09:53.274Z,121.93
2018-02-09T06:12:20.795Z,125.40
2018-02-09T06:14:48.480Z,109.07
2018-02-09T06:17:16.259Z,111.70
2018-02-09T06:19:43.779Z,113.73
2018-02-09T06:22:11.490Z,115.83
2018-02-09T06:24:38.999Z,127.33
2018-02-09T06:27:06.676Z,104.50
2018-02-09T06:29:34.474Z,110.93
2018-02-09T06:32:02.004Z,118.20
2018-02-09T06:34:29.520Z,115.80
2018-02-09T06:36:58.203Z,110.97
2018-02-09T06:39:26.496Z,116.77
2018-02-09T06:41:54.023Z,105.97
2018-02-09T06:44:21.767Z,113.03
2018-02-09T06:46:49.395Z,102.73
2018-02-09T06:49:17.188Z,111.67
2018-02-09T06:51:44.714Z,112.53
2018-02-09T06:54:12.238Z,103.10
2018-02-09T06:56:40.623Z,105.67
2018-02-09T06:59:08.372Z,115.47
2018-02-09T07:01:35.890Z,107.87
2018-02-09T07:04:03.463Z,105.37
2018-02-09T07:06:30.979Z,112.87
2018-02-09T07:08:58.899Z,123.67
2018-02-09T07:11:26.413Z,184.23
2018-02-09T07:13:54.227Z,109.97
2018-02-09T07:16:23.671Z,108.33
2018-02-09T07:18:51.711Z,108.00
2018-02-09T07:21:19.994Z,113.43
2018-02-09T07:23:47.690Z,108.80
2018-02-09T07:26:15.212Z,113.67
2018-02-09T07:28:43.893Z,120.30
2018-02-09T07:31:11.611Z,116.63
2018-02-09T07:33:39.904Z,118.70
2018-02-09T07:36:07.431Z,112.90
2018-02-09T07:38:34.992Z,105.13
2018-02-09T07:41:02.487Z,111.90
2018-02-09T07:43:30.145Z,116.40
2018-02-09T07:45:57.662Z,117.67
2018-02-09T07:48:25.180Z,129.90
2018-02-09T07:50:53.463Z,117.23
2018-02-09T07:53:21.205Z,114.23
2018-02-09T07:55:48.974Z,180.73
2018-02-09T07:58:16.694Z,127.40
2018-02-09T08:00:44.475Z,119.70
2018-02-09T08:03:11.998Z,130.17
2018-02-09T08:05:39.502Z,115.77
2018-02-09T08:08:07.124Z,101.30
2018-02-09T08:10:34.640Z,119.43
2018-02-09T08:13:02.918Z,110.10
2018-02-09T08:15:30.463Z,117.73
2018-02-09T08:17:57.984Z,110.57
2018-02-09T08:20:25.488Z,121.80
2018-02-09T08:22:52.999Z,133.50
2018-02-09T08:25:20.591Z,119.80
2018-02-09T08:27:48.119Z,125.30
2018-02-09T08:30:15.660Z,125.77
2018-02-09T08:32:43.176Z,129.27
2018-02-09T08:35:10.716Z,111.97
2018-02-09T08:37:38.475Z,120.33
2018-02-09T08:40:06.208Z,126.70
2018-02-09T08:42:33.950Z,126.20
2018-02-09T08:45:01.463Z,124.30
2018-02-09T08:47:29.099Z,123.47
2018-02-09T08:49:56.619Z,121.67
2018-02-09T08:52:24.457Z,122.33
2018-02-09T08:54:52.194Z,116.40
2018-02-09T08:57:19.707Z,134.10
2018-02-09T08:59:47.432Z,127.63
2018-02-09T09:02:14.971Z,125.63
2018-02-09T09:04:42.752Z,119.57
2018-02-09T09:07:10.383Z,127.37
2018-02-09T09:09:37.911Z,119.43
2018-02-09T09:12:05.427Z,126.77
2018-02-09T09:14:32.956Z,127.63
2018-02-09T09:17:00.482Z,139.13
2018-02-09T09:19:28.304Z,115.60
2018-02-09T09:21:55.817Z,132.67
2018-02-09T09:24:24.379Z,127.33
2018-02-09T09:26:51.883Z,119.40
2018-02-09T09:29:19.404Z,134.57
2018-02-09T09:31:47.135Z,126.40
2018-02-09T09:34:14.656Z,125.93
2018-02-09T09:36:42.312Z,122.57
2018-02-09T09:39:09.829Z,120.00
2018-02-09T09:41:37.957Z,117.53
2018-02-09T09:44:05.480Z,119.53
2018-02-09T09:46:33.092Z,131.17
2018-02-09T09:49:00.855Z,117.00
2018-02-09T09:51:28.591Z,128.90
2018-02-09T09:53:56.103Z,130.23
2018-02-09T09:56:23.677Z,128.10
2018-02-09T09:58:52.220Z,129.30
2018-02-09T10:01:36.275Z,131.60
2018-02-09T10:04:03.802Z,129.97
2018-02-09T10:06:31.437Z,123.47
2018-02-09T10:08:58.957Z,117.73
2018-02-09T10:11:26.735Z,118.30
2018-02-09T10:13:54.451Z,117.03
2018-02-09T10:16:21.999Z,129.57
2018-02-09T10:18:49.521Z,124.03
2018-02-09T10:21:17.800Z,121.10
2018-02-09T10:23:46.255Z,126.47
2018-02-09T10:26:13.911Z,121.70
2018-02-09T10:28:41.435Z,133.43
2018-02-09T10:31:08.943Z,128.10
2018-02-09T10:33:36.556Z,121.73
2018-02-09T10:36:04.083Z,135.27
2018-02-09T10:38:31.767Z,127.33
2018-02-09T10:40:59.568Z,123.87
2018-02-09T10:43:27.317Z,122.90
2018-02-09T10:45:54.834Z,123.07
2018-02-09T10:48:22.545Z,134.73
2018-02-09T10:50:50.217Z,127.20
2018-02-09T10:53:17.738Z,127.87
2018-02-09T10:55:45.243Z,124.13
2018-02-09T10:58:12.983Z,127.80
2018-02-09T11:00:46.309Z,125.70
2018-02-09T11:03:13.823Z,112.17
2018-02-09T11:05:41.330Z,132.60
2018-02-09T11:08:09.607Z,119.03
2018-02-09T11:10:42.922Z,130.07
2018-02-09T11:13:16.535Z,118.30
2018-02-09T11:15:44.218Z,129.97
2018-02-09T11:18:11.967Z,149.63
2018-02-09T11:20:39.469Z,136.43
2018-02-09T11:23:06.979Z,115.43
2018-02-09T11:25:34.626Z,126.37
2018-02-09T11:28:02.124Z,125.13
2018-02-09T11:30:29.878Z,115.40
2018-02-09T11:32:57.441Z,118.87
2018-02-09T11:35:25.095Z,118.83
2018-02-09T11:37:52.818Z,110.10
2018-02-09T11:40:20.327Z,117.00
2018-02-09T11:42:47.835Z,133.10
2018-02-09T11:45:15.543Z,134.90
2018-02-09T11:47:43.054Z,124.70
2018-02-09T11:50:10.585Z,123.13
2018-02-09T11:52:38.095Z,121.87
2018-02-09T11:55:05.603Z,108.40
2018-02-09T11:57:33.107Z,117.57
2018-02-09T12:00:00.636Z,118.40
2018-02-09T12:02:28.363Z,112.20
2018-02-09T12:04:55.887Z,114.23
2018-02-09T12:07:23.592Z,116.00
2018-02-09T12:09:52.661Z,117.00
2018-02-09T12:12:20.332Z,123.17
2018-02-09T12:14:47.851Z,116.03
2018-02-09T12:17:15.365Z,116.27
2018-02-09T12:19:42.998Z,124.77
2018-02-09T12:22:10.503Z,119.47
2018-02-09T12:24:38.204Z,113.53
2018-02-09T12:27:05.722Z,117.10
2018-02-09T12:29:33.232Z,126.73
2018-02-09T12:32:00.750Z,113.00
2018-02-09T12:34:28.318Z,119.57
2018-02-09T12:36:56.126Z,122.53
2018-02-09T12:39:23.636Z,114.50
2018-02-09T12:41:51.363Z,121.47
2018-02-09T12:44:18.891Z,124.30
2018-02-09T12:46:46.411Z,120.73
2018-02-09T12:49:13.920Z,120.50
2018-02-09T12:51:41.463Z,127.57
2018-02-09T12:54:08.970Z,118.83
2018-02-09T12:56:36.695Z,119.57
2018-02-09T12:59:04.966Z,122.60
2018-02-09T13:01:32.495Z,131.50
2018-02-09T13:04:00.117Z,127.80
2018-02-09T13:06:27.619Z,124.30
2018-02-09T13:08:55.344Z,118.77
2018-02-09T13:11:23.900Z,121.50
2018-02-09T13:13:51.419Z,116.90
2018-02-09T13:16:19.080Z,131.13
2018-02-09T13:18:47.277Z,103.67
2018-02-09T13:21:15.120Z,130.27
2018-02-09T13:23:54.548Z,123.13
2018-02-09T13:26:22.111Z,117.60
2018-02-09T13:28:57.495Z,121.27
2018-02-09T13:31:25.049Z,120.43
2018-02-09T13:33:52.560Z,116.70
2018-02-09T13:36:26.106Z,117.40
2018-02-09T13:38:53.871Z,116.37
2018-02-09T13:41:21.638Z,114.13
2018-02-09T13:43:49.392Z,121.07
2018-02-09T13:46:17.028Z,117.17
2018-02-09T13:48:44.659Z,108.13
2018-02-09T13:51:12.363Z,119.27
2018-02-09T13:53:39.908Z,114.13
2018-02-09T13:56:07.397Z,106.93
2018-02-09T13:58:34.955Z,116.27
2018-02-09T14:01:03.663Z,118.23
2018-02-09T14:03:31.170Z,125.27
2018-02-09T14:05:58.679Z,107.93
2018-02-09T14:08:26.199Z,114.27
2018-02-09T14:10:53.720Z,102.37
2018-02-09T14:13:22.400Z,108.73
2018-02-09T14:15:50.690Z,108.17
2018-02-09T14:18:18.184Z,111.27
2018-02-09T14:20:47.434Z,107.03
2018-02-09T14:23:14.975Z,119.70
2018-02-09T14:25:43.516Z,106.30
2018-02-09T14:28:11.136Z,110.00
2018-02-09T14:30:39.722Z,111.27
2018-02-09T14:33:07.348Z,119.37
2018-02-09T14:35:34.858Z,109.50
2018-02-09T14:38:02.651Z,107.63
2018-02-09T14:40:30.166Z,117.20
2018-02-09T14:42:57.814Z,104.10
2018-02-09T14:45:25.319Z,106.40
2018-02-09T14:47:52.838Z,115.73
2018-02-09T14:50:20.601Z,108.60
2018-02-09T14:52:48.110Z,105.30
2018-02-09T14:55:15.763Z,101.40
2018-02-09T14:57:43.532Z,97.83
2018-02-09T15:00:11.286Z,116.60
2018-02-09T15:02:39.603Z,115.33
2018-02-09T15:05:07.108Z,115.77
2018-02-09T15:07:34.645Z,105.23
2018-02-09T15:10:02.162Z,103.50
2018-02-09T15:12:29.804Z,103.33
2018-02-09T15:14:57.349Z,108.50
2018-02-09T15:17:25.029Z,122.63
2018-02-09T15:19:52.539Z,119.73
2018-02-09T15:22:20.051Z,110.50
2018-02-09T15:24:47.552Z,124.03
2018-02-09T15:27:15.167Z,117.07
2018-02-09T15:29:42.670Z,106.93
2018-02-09T15:32:10.188Z,116.10
2018-02-09T15:34:37.688Z,133.87
2018-02-09T15:37:05.471Z,110.93
2018-02-09T15:39:33.018Z,121.00
2018-02-09T15:42:00.809Z,118.50
2018-02-09T15:44:28.328Z,110.73
2018-02-09T15:46:55.835Z,111.83
2018-02-09T15:49:23.411Z,112.93
2018-02-09T15:51:50.920Z,139.83
2018-02-09T15:54:18.427Z,130.57
2018-02-09T15:56:45.937Z,126.47
2018-02-09T15:59:13.443Z,120.67
2018-02-09T16:01:41.034Z,125.83
2018-02-09T16:04:08.619Z,116.07
2018-02-09T16:06:36.302Z,123.50
2018-02-09T16:09:03.811Z,134.23
2018-02-09T16:11:31.316Z,134.97
2018-02-09T16:13:58.835Z,123.97
2018-02-09T16:16:26.342Z,131.30
2018-02-09T16:18:53.890Z,129.03
2018-02-09T16:21:21.396Z,131.63
2018-02-09T16:23:49.111Z,139.37
2018-02-09T16:26:16.615Z,137.03
2018-02-09T16:28:44.944Z,140.70
2018-02-09T16:31:12.456Z,142.03
2018-02-09T16:33:39.964Z,151.07
2018-02-09T16:36:07.623Z,136.90
2018-02-09T16:38:35.118Z,130.80
2018-02-09T16:41:02.643Z,133.00
2018-02-09T16:43:30.157Z,126.07
2018-02-09T16:45:58.178Z,137.60
2018-02-09T16:48:25.848Z,135.07
2018-02-09T16:50:53.484Z,136.80
2018-02-09T16:53:20.982Z,141.07
2018-02-09T16:55:48.720Z,131.00
2018-02-09T16:58:16.238Z,125.57
2018-02-09T17:00:43.752Z,137.03
2018-02-09T17:03:11.489Z,141.37
2018-02-09T17:05:39.255Z,133.07
2018-02-09T17:08:06.762Z,128.63
2018-02-09T17:10:34.479Z,134.13
2018-02-09T17:13:03.495Z,125.80
2018-02-09T17:15:31.227Z,134.43
2018-02-09T17:17:59.542Z,134.63
2018-02-09T17:20:27.045Z,131.10
2018-02-09T17:22:55.478Z,126.90
2018-02-09T17:25:22.997Z,134.70
2018-02-09T17:27:50.655Z,129.77
2018-02-09T17:30:18.419Z,134.80
2018-02-09T17:32:46.187Z,117.10
2018-02-09T17:35:13.703Z,126.73
2018-02-09T17:37:41.383Z,138.53
2018-02-09T17:40:08.891Z,134.73
2018-02-09T17:42:36.635Z,125.43
2018-02-09T17:45:04.158Z,130.17
2018-02-09T17:47:31.864Z,128.10
2018-02-09T17:49:59.368Z,132.53
2018-02-09T17:52:27.067Z,131.13
2018-02-09T17:54:54.603Z,125.77
2018-02-09T17:57:22.115Z,126.27
2018-02-09T17:59:50.491Z,118.37
2018-02-09T18:02:19.040Z,126.47
2018-02-09T18:04:46.576Z,125.40
2018-02-09T18:07:14.262Z,121.57
2018-02-09T18:09:41.765Z,126.70
2018-02-09T18:12:09.279Z,116.87
2018-02-09T18:14:36.912Z,129.47
2018-02-09T18:17:04.415Z,123.63
2018-02-09T18:19:31.932Z,130.23
2018-02-09T18:21:59.446Z,125.80
2018-02-09T18:24:27.988Z,130.30
2018-02-09T18:26:55.494Z,131.03
2018-02-09T18:29:23.185Z,122.60
2018-02-09T18:31:50.688Z,121.10
2018-02-09T18:34:18.432Z,138.73
2018-02-09T18:36:46.205Z,125.60
2018-02-09T18:39:13.723Z,115.53
2018-02-09T18:41:42.311Z,131.47
2018-02-09T18:44:09.823Z,129.90
2018-02-09T18:46:37.323Z,147.73
2018-02-09T18:49:05.039Z,133.03
2018-02-09T18:51:32.548Z,125.17
2018-02-09T18:54:00.208Z,137.33
2018-02-09T18:56:27.996Z,133.43
2018-02-09T18:58:55.514Z,135.93
2018-02-09T19:01:23.214Z,134.27
2018-02-09T19:03:50.984Z,128.23
2018-02-09T19:06:18.755Z,134.17
2018-02-09T19:08:46.507Z,133.57
2018-02-09T19:11:14.266Z,130.63
2018-02-09T19:13:41.845Z,126.50
2018-02-09T19:16:09.482Z,131.60
2018-02-09T19:18:37.007Z,131.07
2018-02-09T19:21:04.619Z,142.30
2018-02-09T19:23:32.139Z,136.83
2018-02-09T19:25:59.662Z,141.67
2018-02-09T19:28:27.159Z,124.67
2018-02-09T19:30:54.814Z,130.97
2018-02-09T19:33:22.822Z,142.17
2018-02-09T19:35:50.337Z,146.33
2018-02-09T19:38:17.848Z,142.07
2018-02-09T19:40:45.356Z,135.03
2018-02-09T19:43:12.861Z,137.43
2018-02-09T19:45:40.478Z,137.47
2018-02-09T19:48:08.267Z,135.80
2018-02-09T19:50:35.792Z,157.80
2018-02-09T19:53:03.486Z,131.57
2018-02-09T19:55:31.012Z,156.37
2018-02-09T19:57:59.098Z,156.87
2018-02-09T20:00:26.602Z,154.50
2018-02-09T20:02:54.268Z,151.67
2018-02-09T20:05:22.003Z,159.57
2018-02-09T20:07:49.552Z,146.13
2018-02-09T20:10:17.100Z,148.07
2018-02-09T20:12:44.853Z,156.30
2018-02-09T20:15:12.353Z,167.50
2018-02-09T20:17:39.904Z,159.40
2018-02-09T20:20:07.463Z,161.40
2018-02-09T20:22:35.128Z,154.73
2018-02-09T20:25:02.930Z,160.40
2018-02-09T20:27:30.435Z,145.20
2018-02-09T20:29:58.172Z,159.13
2018-02-09T20:32:25.879Z,154.07
2018-02-09T20:34:54.903Z,150.83
2018-02-09T20:37:22.630Z,157.20
2018-02-09T20:39:50.395Z,147.43
2018-02-09T20:42:17.915Z,157.70
2018-02-09T20:44:45.616Z,166.90
2018-02-09T20:47:13.472Z,162.83
2018-02-09T20:49:41.126Z,156.30
2018-02-09T20:52:08.719Z,162.87
2018-02-09T20:54:37.011Z,168.70
2018-02-09T20:57:04.732Z,155.73
2018-02-09T20:59:32.490Z,165.07
2018-02-09T21:02:00.026Z,169.70
2018-02-09T21:04:27.531Z,153.50
2018-02-09T21:06:55.295Z,168.33
2018-02-09T21:09:22.815Z,183.70
2018-02-09T21:11:50.435Z,165.10
2018-02-09T21:14:19.095Z,160.73
2018-02-09T21:16:46.866Z,157.03
2018-02-09T21:19:14.581Z,173.80
2018-02-09T21:21:42.098Z,150.37
2018-02-09T21:24:09.635Z,170.40
2018-02-09T21:26:37.146Z,165.47
2018-02-09T21:29:04.751Z,154.43
2018-02-09T21:31:32.272Z,164.00
2018-02-09T21:33:59.794Z,166.33
2018-02-09T21:36:28.063Z,173.10
2018-02-09T21:38:55.589Z,164.57
2018-02-09T21:41:23.097Z,172.83
2018-02-09T21:43:50.698Z,176.17
2018-02-09T21:46:18.218Z,178.77
2018-02-09T21:48:45.751Z,174.60
2018-02-09T21:51:14.053Z,165.27
2018-02-09T21:53:41.803Z,156.87
2018-02-09T21:56:09.284Z,170.87
2018-02-09T21:58:36.978Z,173.50
2018-02-09T22:01:04.499Z,178.30
2018-02-09T22:03:32.072Z,171.63
2018-02-09T22:05:59.674Z,174.53
2018-02-09T22:08:27.191Z,166.60
2018-02-09T22:10:54.880Z,166.13
2018-02-09T22:13:23.139Z,167.40
2018-02-09T22:15:50.685Z,169.87
2018-02-09T22:18:18.201Z,159.13
2018-02-09T22:20:46.099Z,173.20
2018-02-09T22:23:13.658Z,178.87
2018-02-09T22:25:41.181Z,181.57
2018-02-09T22:28:08.902Z,176.23
2018-02-09T22:30:36.960Z,167.60
2018-02-09T22:33:04.482Z,182.77
2018-02-09T22:35:32.003Z,259.53
2018-02-09T22:37:59.562Z,261.07
2018-02-09T22:40:27.083Z,179.00
2018-02-09T22:42:54.591Z,171.70
2018-02-09T22:45:22.112Z,175.40
2018-02-09T22:47:49.747Z,198.50
2018-02-09T22:50:17.271Z,169.57
2018-02-09T22:52:44.788Z,169.97
2018-02-09T22:55:12.437Z,171.57
2018-02-09T22:57:39.948Z,174.30
2018-02-09T23:00:07.487Z,189.63
2018-02-09T23:02:35.141Z,182.90
2018-02-09T23:05:02.894Z,192.77
2018-02-09T23:07:30.663Z,166.77
2018-02-09T23:09:58.197Z,186.93
2018-02-09T23:12:25.892Z,172.97
2018-02-09T23:14:57.318Z,187.13
2018-02-09T23:17:24.813Z,172.40
2018-02-09T23:19:53.831Z,171.00
2018-02-09T23:22:21.357Z,180.67
2018-02-09T23:24:48.979Z,178.00
2018-02-09T23:27:16.500Z,168.43
2018-02-09T23:29:44.252Z,177.57
2018-02-09T23:32:13.536Z,174.73
2018-02-09T23:34:41.290Z,184.00
2018-02-09T23:37:09.067Z,189.13
2018-02-09T23:39:38.357Z,194.60
2018-02-09T23:42:05.893Z,176.97
2018-02-09T23:44:33.575Z,185.57
2018-02-09T23:47:01.091Z,179.03
2018-02-09T23:49:28.761Z,185.03
2018-02-09T23:51:56.271Z,186.27
2018-02-09T23:54:24.013Z,197.40
2018-02-09T23:56:51.823Z,190.90
2018-02-09T23:59:19.355Z,187.90
